createdAt,value
2022-10-09T00:01:19.545Z,95767.91
2022-10-09T00:03:48.997Z,95771.61
2022-10-09T00:06:18.715Z,95771.23
2022-10-09T00:08:46.590Z,95774.27
2022-10-09T00:11:23.899Z,95775.84
2022-10-09T00:13:52.206Z,95777.19
2022-10-09T00:16:20.748Z,95774.86
2022-10-09T00:18:48.682Z,95774.20
2022-10-09T00:21:17.822Z,95775.66
2022-10-09T00:23:45.720Z,95773.61
2022-10-09T00:26:13.745Z,95774.37
2022-10-09T00:28:41.683Z,95766.10
2022-10-09T00:31:10.376Z,95762.88
2022-10-09T00:33:38.566Z,95763.38
2022-10-09T00:36:11.982Z,95765.20
2022-10-09T00:38:39.729Z,95759.91
2022-10-09T00:41:07.943Z,95763.48
2022-10-09T00:43:53.107Z,95759.49
2022-10-09T00:46:30.364Z,95757.45
2022-10-09T00:49:01.081Z,95760.98
2022-10-09T00:51:29.893Z,95763.73
2022-10-09T00:53:57.899Z,95758.20
2022-10-09T00:56:25.833Z,95758.55
2022-10-09T00:58:56.455Z,95751.20
2022-10-09T01:01:24.319Z,95750.28
2022-10-09T01:03:52.117Z,95756.39
2022-10-09T01:06:31.107Z,95754.36
2022-10-09T01:09:05.906Z,95760.96
2022-10-09T01:11:38.795Z,95758.52
2022-10-09T01:14:25.680Z,95760.20
2022-10-09T01:17:07.906Z,95766.55
2022-10-09T01:19:35.847Z,95766.89
2022-10-09T01:22:14.033Z,95768.27
2022-10-09T01:24:47.366Z,95764.67
2022-10-09T01:27:18.471Z,95765.67
2022-10-09T01:29:48.481Z,95767.48
2022-10-09T01:32:18.842Z,95767.75
2022-10-09T01:34:47.893Z,95771.34
2022-10-09T01:37:16.674Z,95771.22
2022-10-09T01:39:45.415Z,95773.45
2022-10-09T01:42:14.642Z,95774.50
2022-10-09T01:44:42.623Z,95777.30
2022-10-09T01:47:15.074Z,95775.09
2022-10-09T01:49:54.037Z,95778.27
2022-10-09T01:52:41.140Z,95778.48
2022-10-09T01:55:25.101Z,95774.63
2022-10-09T01:57:56.170Z,95775.02
2022-10-09T02:00:24.323Z,95772.75
2022-10-09T02:02:53.816Z,95766.92
2022-10-09T02:05:23.752Z,95762.88
2022-10-09T02:07:51.987Z,95763.50
2022-10-09T02:10:21.018Z,95760.52
2022-10-09T02:12:59.281Z,95762.98
2022-10-09T02:15:31.160Z,95767.35
2022-10-09T02:18:03.962Z,95768.55
2022-10-09T02:20:34.774Z,95765.83
2022-10-09T02:23:04.322Z,95763.98
2022-10-09T02:25:32.488Z,95764.47
2022-10-09T02:28:00.391Z,95766.73
2022-10-09T02:30:31.701Z,95772.63
2022-10-09T02:32:59.476Z,95777.38
2022-10-09T02:35:27.249Z,95780.61
2022-10-09T02:37:55.127Z,95777.90
2022-10-09T02:40:22.950Z,95778.45
2022-10-09T02:42:51.112Z,95779.70
2022-10-09T02:45:19.519Z,95785.14
2022-10-09T02:47:47.297Z,95786.82
2022-10-09T02:50:15.028Z,95788.52
2022-10-09T02:52:48.072Z,95786.19
2022-10-09T02:55:16.025Z,95786.15
2022-10-09T02:57:43.817Z,95790.89
2022-10-09T03:00:12.131Z,95786.00
2022-10-09T03:02:40.133Z,95789.39
2022-10-09T03:05:08.209Z,95792.66
2022-10-09T03:07:36.021Z,95790.92
2022-10-09T03:10:07.258Z,95788.59
2022-10-09T03:12:35.124Z,95791.90
2022-10-09T03:15:02.993Z,95796.93
2022-10-09T03:17:31.003Z,95793.79
2022-10-09T03:19:58.825Z,95789.08
2022-10-09T03:22:26.672Z,95786.13
2022-10-09T03:24:54.414Z,95781.23
2022-10-09T03:27:22.259Z,95782.12
2022-10-09T03:29:50.128Z,95786.19
2022-10-09T03:32:18.039Z,95787.16
2022-10-09T03:34:45.917Z,95787.84
2022-10-09T03:37:14.588Z,95797.73
2022-10-09T03:39:42.373Z,95803.60
2022-10-09T03:42:10.218Z,95812.03
2022-10-09T03:44:38.021Z,95811.64
2022-10-09T03:47:06.166Z,95812.77
2022-10-09T03:49:34.178Z,95810.25
2022-10-09T03:52:02.029Z,95809.38
2022-10-09T03:54:29.815Z,95810.98
2022-10-09T03:56:57.657Z,95813.54
2022-10-09T03:59:25.419Z,95811.87
2022-10-09T04:01:53.308Z,95814.41
2022-10-09T04:04:25.069Z,95818.39
2022-10-09T04:06:52.886Z,95816.70
2022-10-09T04:09:20.672Z,95818.83
2022-10-09T04:11:49.075Z,95820.91
2022-10-09T04:14:16.848Z,95814.33
2022-10-09T04:16:44.639Z,95815.23
2022-10-09T04:19:12.614Z,95810.21
2022-10-09T04:21:40.429Z,95810.27
2022-10-09T04:24:08.730Z,95809.37
2022-10-09T04:26:36.632Z,95808.20
2022-10-09T04:29:04.556Z,95806.13
2022-10-09T04:31:32.450Z,95805.67
2022-10-09T04:34:00.242Z,95812.69
2022-10-09T04:36:28.117Z,95807.61
2022-10-09T04:38:55.958Z,95808.89
2022-10-09T04:41:23.779Z,95809.80
2022-10-09T04:43:54.519Z,95812.97
2022-10-09T04:46:23.264Z,95814.34
2022-10-09T04:48:51.124Z,95822.89
2022-10-09T04:51:18.967Z,95818.06
2022-10-09T04:53:46.864Z,95821.86
2022-10-09T04:56:16.703Z,95826.64
2022-10-09T04:58:45.280Z,95820.80
2022-10-09T05:01:15.568Z,95826.14
2022-10-09T05:03:43.657Z,95826.49
2022-10-09T05:06:16.890Z,95821.99
2022-10-09T05:08:44.995Z,95818.63
2022-10-09T05:11:17.949Z,95819.08
2022-10-09T05:13:46.943Z,95822.98
2022-10-09T05:16:16.108Z,95825.88
2022-10-09T05:18:45.090Z,95829.34
2022-10-09T05:21:13.005Z,95834.39
2022-10-09T05:23:41.133Z,95833.14
2022-10-09T05:26:11.452Z,95837.16
2022-10-09T05:28:39.694Z,95839.45
2022-10-09T05:31:08.256Z,95838.14
2022-10-09T05:33:36.079Z,95844.11
2022-10-09T05:36:05.525Z,95845.60
2022-10-09T05:38:33.973Z,95852.05
2022-10-09T05:41:03.528Z,95852.86
2022-10-09T05:43:32.546Z,95854.55
2022-10-09T05:46:08.176Z,95861.45
2022-10-09T05:48:36.949Z,95863.11
2022-10-09T05:51:08.967Z,95864.39
2022-10-09T05:53:36.895Z,95869.27
2022-10-09T05:56:17.044Z,95867.23
2022-10-09T05:58:50.854Z,95869.10
2022-10-09T06:01:19.058Z,95868.02
2022-10-09T06:03:54.311Z,95871.77
2022-10-09T06:06:23.895Z,95874.98
2022-10-09T06:08:51.809Z,95876.38
2022-10-09T06:11:22.834Z,95880.33
2022-10-09T06:13:51.417Z,95884.14
2022-10-09T06:16:23.586Z,95884.08
2022-10-09T06:18:52.723Z,95882.29
2022-10-09T06:21:21.104Z,95879.96
2022-10-09T06:23:50.271Z,95878.88
2022-10-09T06:26:18.813Z,95877.73
2022-10-09T06:28:46.754Z,95878.79
2022-10-09T06:31:19.340Z,95877.23
2022-10-09T06:33:48.214Z,95880.23
2022-10-09T06:36:17.453Z,95884.31
2022-10-09T06:38:45.802Z,95886.96
2022-10-09T06:41:18.829Z,95886.67
2022-10-09T06:43:57.052Z,95886.23
2022-10-09T06:46:32.543Z,95889.70
2022-10-09T06:49:00.559Z,95895.78
2022-10-09T06:51:29.200Z,95899.70
2022-10-09T06:53:58.367Z,95899.81
2022-10-09T06:56:27.617Z,95898.47
2022-10-09T06:58:55.907Z,95898.56
2022-10-09T07:01:26.953Z,95902.62
2022-10-09T07:03:56.785Z,95904.07
2022-10-09T07:06:25.801Z,95901.88
2022-10-09T07:08:55.340Z,95899.48
2022-10-09T07:11:25.124Z,95897.63
2022-10-09T07:13:54.329Z,95896.33
2022-10-09T07:16:23.823Z,95897.92
2022-10-09T07:18:52.004Z,95899.95
2022-10-09T07:21:19.962Z,95898.67
2022-10-09T07:23:47.977Z,95901.80
2022-10-09T07:26:17.728Z,95896.69
2022-10-09T07:28:46.154Z,95890.12
2022-10-09T07:31:19.476Z,95891.69
2022-10-09T07:33:48.643Z,95895.42
2022-10-09T07:36:16.908Z,95894.98
2022-10-09T07:38:49.077Z,95901.70
2022-10-09T07:41:17.187Z,95904.58
2022-10-09T07:43:45.097Z,95900.15
2022-10-09T07:46:17.675Z,95893.80
2022-10-09T07:48:46.157Z,95894.13
2022-10-09T07:51:18.347Z,95895.53
2022-10-09T07:53:46.886Z,95902.92
2022-10-09T07:56:19.369Z,95907.89
2022-10-09T07:58:51.752Z,95914.60
2022-10-09T08:01:20.726Z,95908.17
2022-10-09T08:03:49.027Z,95913.35
2022-10-09T08:06:17.969Z,95907.77
2022-10-09T08:08:49.197Z,95908.68
2022-10-09T08:11:20.944Z,95909.35
2022-10-09T08:13:49.475Z,95911.86
2022-10-09T08:16:18.387Z,95911.77
2022-10-09T08:18:46.553Z,95908.88
2022-10-09T08:21:19.581Z,95913.90
2022-10-09T08:23:47.576Z,95920.92
2022-10-09T08:26:16.593Z,95921.02
2022-10-09T08:28:44.856Z,95924.09
2022-10-09T08:31:13.951Z,95930.34
2022-10-09T08:33:42.629Z,95932.84
2022-10-09T08:36:11.752Z,95936.63
2022-10-09T08:38:48.136Z,95942.70
2022-10-09T08:41:22.675Z,95948.54
2022-10-09T08:43:55.414Z,95949.73
2022-10-09T08:46:30.719Z,95955.31
2022-10-09T08:48:59.621Z,95955.31
2022-10-09T08:51:28.447Z,95957.80
2022-10-09T08:53:56.155Z,95954.62
2022-10-09T08:56:25.442Z,95948.11
2022-10-09T08:58:53.420Z,95948.73
2022-10-09T09:01:24.428Z,95944.90
2022-10-09T09:04:04.702Z,95947.08
2022-10-09T09:06:35.567Z,95951.39
2022-10-09T09:09:12.232Z,95955.91
2022-10-09T09:11:47.479Z,95955.29
2022-10-09T09:14:18.255Z,95954.95
2022-10-09T09:17:00.978Z,95953.03
2022-10-09T09:19:32.013Z,95949.37
2022-10-09T09:21:59.952Z,95951.30
2022-10-09T09:24:38.083Z,95948.89
2022-10-09T09:27:14.026Z,95948.73
2022-10-09T09:29:46.135Z,95951.70
2022-10-09T09:32:24.184Z,95955.52
2022-10-09T09:34:56.353Z,95959.16
2022-10-09T09:37:24.264Z,95964.80
2022-10-09T09:40:35.082Z,95965.75
2022-10-09T09:42:40.207Z,95970.93
2022-10-09T09:45:13.008Z,95969.20
2022-10-09T09:47:43.202Z,95971.44
2022-10-09T09:50:28.582Z,95971.03
2022-10-09T09:52:52.604Z,95967.93
2022-10-09T09:55:27.699Z,95966.29
2022-10-09T09:58:06.961Z,95964.98
2022-10-09T10:00:35.502Z,95968.46
2022-10-09T10:03:05.117Z,95968.47
2022-10-09T10:05:35.263Z,95967.56
2022-10-09T10:08:13.979Z,95963.61
2022-10-09T10:10:46.810Z,95964.50
2022-10-09T10:13:19.627Z,95958.40
2022-10-09T10:15:52.333Z,95949.94
2022-10-09T10:18:21.304Z,95953.72
2022-10-09T10:20:49.152Z,95951.94
2022-10-09T10:23:23.148Z,95949.92
2022-10-09T10:25:53.321Z,95947.88
2022-10-09T10:28:30.109Z,95953.30
2022-10-09T10:30:59.373Z,95955.04
2022-10-09T10:33:28.980Z,95947.91
2022-10-09T10:35:58.216Z,95945.64
2022-10-09T10:38:26.144Z,95947.76
2022-10-09T10:40:57.019Z,95948.25
2022-10-09T10:43:33.748Z,95944.85
2022-10-09T10:46:10.441Z,95943.88
2022-10-09T10:48:48.340Z,95942.45
2022-10-09T10:51:37.984Z,95941.39
2022-10-09T10:54:05.808Z,95938.36
2022-10-09T10:56:53.381Z,95941.40
2022-10-09T10:59:24.999Z,95937.14
2022-10-09T11:01:52.918Z,95936.92
2022-10-09T11:04:26.926Z,95935.54
2022-10-09T11:07:07.910Z,95932.30
2022-10-09T11:09:42.069Z,95931.45
2022-10-09T11:12:19.269Z,95930.05
2022-10-09T11:14:52.707Z,95927.23
2022-10-09T11:17:26.683Z,95923.11
2022-10-09T11:20:11.710Z,95925.04
2022-10-09T11:22:53.146Z,95917.79
2022-10-09T11:25:44.153Z,95918.86
2022-10-09T11:28:30.125Z,95921.73
2022-10-09T11:31:02.793Z,95923.21
2022-10-09T11:33:39.754Z,95919.45
2022-10-09T11:36:37.098Z,95923.99
2022-10-09T11:39:06.312Z,95924.09
2022-10-09T11:41:35.463Z,95922.84
2022-10-09T11:44:21.943Z,95927.21
2022-10-09T11:47:01.602Z,95923.83
2022-10-09T11:49:36.012Z,95926.27
2022-10-09T11:52:14.988Z,95928.77
2022-10-09T11:54:44.338Z,95922.48
2022-10-09T11:57:15.269Z,95922.29
2022-10-09T11:59:43.542Z,95925.17
2022-10-09T12:02:28.345Z,95926.56
2022-10-09T12:04:57.032Z,95925.83
2022-10-09T12:10:09.331Z,95924.25
2022-10-09T12:12:38.870Z,95921.82
2022-10-09T12:15:12.276Z,95920.05
2022-10-09T12:20:31.165Z,95918.55
2022-10-09T12:23:25.802Z,95920.00
2022-10-09T12:25:48.430Z,95924.60
2022-10-09T12:28:29.458Z,95925.41
2022-10-09T12:30:59.821Z,95927.09
2022-10-09T12:33:36.893Z,95930.06
2022-10-09T12:36:15.794Z,95935.23
2022-10-09T12:38:43.674Z,95932.54
2022-10-09T12:41:19.400Z,95934.48
2022-10-09T12:43:52.139Z,95936.17
2022-10-09T12:46:30.751Z,95935.25
2022-10-09T12:48:59.797Z,95936.59
2022-10-09T12:51:29.413Z,95944.23
2022-10-09T12:53:57.257Z,95941.85
2022-10-09T12:56:43.841Z,95936.86
2022-10-09T12:59:17.650Z,95936.17
2022-10-09T13:01:47.266Z,95938.35
2022-10-09T13:04:29.822Z,95945.39
2022-10-09T13:06:58.851Z,95945.33
2022-10-09T13:09:28.745Z,95938.90
2022-10-09T13:11:59.714Z,95939.51
2022-10-09T13:14:42.077Z,95936.70
2022-10-09T13:17:23.476Z,95936.52
2022-10-09T13:19:53.145Z,95940.92
2022-10-09T13:22:22.734Z,95940.17
2022-10-09T13:24:56.055Z,95940.52
2022-10-09T13:27:25.738Z,95943.55
2022-10-09T13:29:53.979Z,95944.95
2022-10-09T13:32:24.262Z,95941.77
2022-10-09T13:34:55.946Z,95941.27
2022-10-09T13:37:25.009Z,95939.01
2022-10-09T13:39:58.716Z,95942.04
2022-10-09T13:42:28.239Z,95948.44
2022-10-09T13:44:56.100Z,95946.63
2022-10-09T13:47:24.856Z,95947.96
2022-10-09T13:49:52.984Z,95951.20
2022-10-09T13:52:20.856Z,95954.66
2022-10-09T13:54:48.742Z,95956.88
2022-10-09T13:57:16.904Z,95959.11
2022-10-09T13:59:44.817Z,95963.83
2022-10-09T14:02:13.029Z,95967.33
2022-10-09T14:04:41.230Z,95961.65
2022-10-09T14:07:09.238Z,95966.73
2022-10-09T14:09:37.201Z,95965.15
2022-10-09T14:12:05.046Z,95962.68
2022-10-09T14:14:32.869Z,95963.63
2022-10-09T14:17:02.216Z,95963.27
2022-10-09T14:19:30.202Z,95963.95
2022-10-09T14:21:58.521Z,95962.69
2022-10-09T14:24:27.602Z,95964.15
2022-10-09T14:26:55.377Z,95963.52
2022-10-09T14:29:23.220Z,95961.24
2022-10-09T14:31:53.958Z,95962.66
2022-10-09T14:34:22.115Z,95962.39
2022-10-09T14:36:54.569Z,95962.30
2022-10-09T14:39:22.598Z,95961.07
2022-10-09T14:41:50.468Z,95963.13
2022-10-09T14:44:18.429Z,95960.05
2022-10-09T14:46:46.277Z,95959.33
2022-10-09T14:49:14.184Z,95963.63
2022-10-09T14:51:42.118Z,95965.48
2022-10-09T14:54:11.102Z,95965.63
2022-10-09T14:56:39.109Z,95967.07
2022-10-09T14:59:07.067Z,95964.04
2022-10-09T15:01:34.854Z,95961.81
2022-10-09T15:04:03.974Z,95963.11
2022-10-09T15:06:32.383Z,95963.59
2022-10-09T15:09:04.618Z,95970.27
2022-10-09T15:11:34.697Z,95970.48
2022-10-09T15:14:03.405Z,95974.92
2022-10-09T15:16:31.269Z,95976.86
2022-10-09T15:18:59.321Z,95976.01
2022-10-09T15:21:28.737Z,95980.05
2022-10-09T15:23:57.198Z,95980.46
2022-10-09T15:26:26.789Z,95982.54
2022-10-09T15:28:54.906Z,95986.48
2022-10-09T15:31:24.136Z,95987.77
2022-10-09T15:33:52.913Z,95993.60
2022-10-09T15:36:21.445Z,95994.52
2022-10-09T15:38:49.977Z,95999.48
2022-10-09T15:41:37.368Z,96001.29
2022-10-09T15:44:16.714Z,96005.07
2022-10-09T15:46:45.155Z,96007.86
2022-10-09T15:49:12.991Z,96009.50
2022-10-09T15:51:41.274Z,96013.60
2022-10-09T15:54:10.198Z,96020.45
2022-10-09T15:56:40.255Z,96026.19
2022-10-09T15:59:16.795Z,96026.00
2022-10-09T16:01:44.897Z,96024.89
2022-10-09T16:04:12.862Z,96028.53
2022-10-09T16:06:40.795Z,96030.67
2022-10-09T16:09:08.983Z,96034.39
2022-10-09T16:11:39.833Z,96040.70
2022-10-09T16:14:07.705Z,96040.15
2022-10-09T16:16:35.574Z,96046.43
2022-10-09T16:19:04.373Z,96053.53
2022-10-09T16:21:32.531Z,96055.63
2022-10-09T16:24:00.689Z,96053.81
2022-10-09T16:26:29.609Z,96058.94
2022-10-09T16:28:59.043Z,96055.37
2022-10-09T16:31:28.752Z,96057.17
2022-10-09T16:33:56.752Z,96057.80
2022-10-09T16:36:24.651Z,96061.92
2022-10-09T16:38:52.464Z,96066.73
2022-10-09T16:41:21.528Z,96066.75
2022-10-09T16:43:50.567Z,96070.64
2022-10-09T16:46:29.040Z,96071.00
2022-10-09T16:48:57.252Z,96076.58
2022-10-09T16:51:26.829Z,96079.63
2022-10-09T16:54:00.332Z,96085.02
2022-10-09T16:56:29.959Z,96080.52
2022-10-09T16:58:58.568Z,96087.77
2022-10-09T17:01:27.496Z,96085.69
2022-10-09T17:03:55.965Z,96093.38
2022-10-09T17:06:24.090Z,96089.89
2022-10-09T17:08:56.241Z,96093.67
2022-10-09T17:11:25.663Z,96095.16
2022-10-09T17:13:56.685Z,96096.39
2022-10-09T17:16:26.740Z,96094.83
2022-10-09T17:18:54.816Z,96095.73
2022-10-09T17:21:22.665Z,96091.60
2022-10-09T17:23:54.854Z,96095.86
2022-10-09T17:26:23.624Z,96097.86
2022-10-09T17:28:52.253Z,96103.86
2022-10-09T17:31:21.825Z,96106.52
2022-10-09T17:33:52.888Z,96108.86
2022-10-09T17:36:22.000Z,96107.52
2022-10-09T17:38:50.474Z,96106.42
2022-10-09T17:41:19.396Z,96111.30
2022-10-09T17:43:47.500Z,96113.52
2022-10-09T17:46:15.472Z,96113.69
2022-10-09T17:48:46.392Z,96114.88
2022-10-09T17:51:19.581Z,96118.45
2022-10-09T17:53:47.508Z,96124.52
2022-10-09T17:56:15.569Z,96119.55
2022-10-09T17:58:44.633Z,96120.86
2022-10-09T18:01:14.379Z,96118.58
2022-10-09T18:03:42.655Z,96118.12
2022-10-09T18:06:12.261Z,96118.35
2022-10-09T18:08:40.778Z,96118.38
2022-10-09T18:11:14.800Z,96118.60
2022-10-09T18:13:43.527Z,96119.73
2022-10-09T18:16:13.014Z,96126.16
2022-10-09T18:18:41.062Z,96130.76
2022-10-09T18:21:10.246Z,96129.45
2022-10-09T18:23:38.464Z,96124.66
2022-10-09T18:26:07.187Z,96127.27
2022-10-09T18:28:35.319Z,96127.27
2022-10-09T18:31:07.229Z,96133.18
2022-10-09T18:33:38.655Z,96138.59
2022-10-09T18:36:13.876Z,96139.84
2022-10-09T18:38:41.656Z,96143.87
2022-10-09T18:41:09.524Z,96147.20
2022-10-09T18:43:37.409Z,96146.56
2022-10-09T18:46:05.305Z,96147.18
2022-10-09T18:48:35.214Z,96148.40
2022-10-09T18:51:03.596Z,96151.05
2022-10-09T18:53:32.242Z,96149.82
2022-10-09T18:56:00.193Z,96153.75
2022-10-09T18:58:28.041Z,96159.01
2022-10-09T19:00:56.247Z,96160.52
2022-10-09T19:03:24.234Z,96160.80
2022-10-09T19:05:52.159Z,96165.48
2022-10-09T19:08:20.169Z,96166.90
2022-10-09T19:10:53.572Z,96165.19
2022-10-09T19:13:25.762Z,96171.42
2022-10-09T19:15:55.089Z,96172.17
2022-10-09T19:18:23.165Z,96166.94
2022-10-09T19:20:50.970Z,96172.86
2022-10-09T19:23:19.370Z,96170.14
2022-10-09T19:25:55.600Z,96167.81
2022-10-09T19:28:24.846Z,96169.14
2022-10-09T19:30:52.637Z,96170.28
2022-10-09T19:33:20.480Z,96172.11
2022-10-09T19:35:52.606Z,96171.35
2022-10-09T19:38:21.192Z,96177.58
2022-10-09T19:40:49.377Z,96178.53
2022-10-09T19:43:17.903Z,96182.86
2022-10-09T19:45:48.832Z,96183.73
2022-10-09T19:48:17.290Z,96185.23
2022-10-09T19:50:45.793Z,96185.30
2022-10-09T19:53:16.614Z,96187.11
2022-10-09T19:55:44.404Z,96188.39
2022-10-09T19:58:12.235Z,96183.42
2022-10-09T20:00:48.259Z,96185.21
2022-10-09T20:03:16.128Z,96180.60
2022-10-09T20:05:43.902Z,96177.98
2022-10-09T20:08:11.797Z,96178.15
2022-10-09T20:10:39.806Z,96184.58
2022-10-09T20:13:07.646Z,96184.18
2022-10-09T20:15:35.747Z,96186.07
2022-10-09T20:18:03.777Z,96185.69
2022-10-09T20:20:31.659Z,96188.77
2022-10-09T20:22:59.560Z,96190.91
2022-10-09T20:25:27.661Z,96193.61
2022-10-09T20:27:56.048Z,96194.23
2022-10-09T20:30:23.837Z,96193.15
2022-10-09T20:32:59.259Z,96186.77
2022-10-09T20:35:27.548Z,96190.83
2022-10-09T20:37:56.089Z,96191.80
2022-10-09T20:40:24.188Z,96190.92
2022-10-09T20:42:52.541Z,96185.48
2022-10-09T20:45:20.654Z,96182.46
2022-10-09T20:47:50.060Z,96180.51
2022-10-09T20:50:17.953Z,96183.23
2022-10-09T20:52:45.809Z,96184.79
2022-10-09T20:55:13.638Z,96183.52
2022-10-09T20:57:41.660Z,96183.43
2022-10-09T21:00:09.840Z,96178.43
2022-10-09T21:02:37.761Z,96180.44
2022-10-09T21:05:05.756Z,96181.07
2022-10-09T21:07:33.651Z,96180.45
2022-10-09T21:10:01.487Z,96178.75
2022-10-09T21:12:29.289Z,96176.58
2022-10-09T21:14:57.140Z,96177.83
2022-10-09T21:17:24.905Z,96177.08
2022-10-09T21:19:52.739Z,96172.18
2022-10-09T21:22:20.584Z,96170.39
2022-10-09T21:24:48.431Z,96166.63
2022-10-09T21:27:16.221Z,96165.15
2022-10-09T21:29:44.065Z,96164.21
2022-10-09T21:32:11.888Z,96166.27
2022-10-09T21:34:39.719Z,96163.60
2022-10-09T21:37:22.962Z,96167.80
2022-10-09T21:39:50.766Z,96170.65
2022-10-09T21:42:18.581Z,96173.83
2022-10-09T21:44:46.339Z,96170.60
2022-10-09T21:47:19.200Z,96177.72
2022-10-09T21:49:47.087Z,96174.92
2022-10-09T21:52:14.959Z,96176.36
2022-10-09T21:54:42.766Z,96174.67
2022-10-09T21:57:10.805Z,96177.45
2022-10-09T21:59:38.765Z,96178.39
2022-10-09T22:02:06.502Z,96181.54
2022-10-09T22:04:34.343Z,96180.26
2022-10-09T22:07:02.117Z,96180.52
2022-10-09T22:09:29.926Z,96170.74
2022-10-09T22:11:57.952Z,96169.79
2022-10-09T22:14:26.047Z,96172.23
2022-10-09T22:16:53.967Z,96174.64
2022-10-09T22:19:21.757Z,96175.64
2022-10-09T22:21:49.600Z,96177.00
2022-10-09T22:24:17.507Z,96178.34
2022-10-09T22:26:45.344Z,96179.70
2022-10-09T22:29:13.376Z,96179.02
2022-10-09T22:31:41.325Z,96179.62
2022-10-09T22:34:12.211Z,96192.78
2022-10-09T22:36:40.049Z,96193.34
2022-10-09T22:39:07.893Z,96190.64
2022-10-09T22:41:36.202Z,96187.94
2022-10-09T22:44:05.292Z,96188.66
2022-10-09T22:46:37.425Z,96187.92
2022-10-09T22:49:06.152Z,96190.59
2022-10-09T22:51:34.383Z,96189.38
2022-10-09T22:54:02.185Z,96191.11
2022-10-09T22:56:31.813Z,96193.98
2022-10-09T22:58:59.645Z,96191.50
2022-10-09T23:01:32.655Z,96190.84
2022-10-09T23:04:01.651Z,96192.06
2022-10-09T23:06:29.898Z,96185.05
2022-10-09T23:08:58.291Z,96189.04
2022-10-09T23:11:26.447Z,96191.45
2022-10-09T23:13:55.684Z,96187.62
2022-10-09T23:16:23.933Z,96187.61
2022-10-09T23:18:51.875Z,96185.55
2022-10-09T23:21:20.805Z,96189.65
2022-10-09T23:23:49.357Z,96193.16
2022-10-09T23:26:19.322Z,96202.06
2022-10-09T23:28:51.411Z,96199.73
2022-10-09T23:31:19.236Z,96197.30
2022-10-09T23:33:47.041Z,96197.34
2022-10-09T23:36:16.762Z,96196.66
2022-10-09T23:38:45.263Z,96197.67
2022-10-09T23:41:18.941Z,96197.55
2022-10-09T23:43:47.688Z,96202.69
2022-10-09T23:46:20.161Z,96202.73
2022-10-09T23:48:48.917Z,96200.69
2022-10-09T23:51:18.236Z,96199.29
2022-10-09T23:53:46.067Z,96194.42
2022-10-09T23:56:19.838Z,96191.15
2022-10-09T23:58:47.861Z,96188.17
